createdAt,value
2019-05-09T00:00:08.785Z,988.45
2019-05-09T00:00:49.151Z,988.47
2019-05-09T00:01:29.552Z,988.42
2019-05-09T00:02:09.932Z,988.41
2019-05-09T00:02:50.321Z,988.47
2019-05-09T00:03:30.710Z,988.42
2019-05-09T00:04:13.869Z,988.45
2019-05-09T00:04:53.233Z,988.43
2019-05-09T00:05:33.454Z,988.46
2019-05-09T00:06:13.689Z,988.5
2019-05-09T00:06:55.569Z,988.49
2019-05-09T00:07:35.967Z,988.5
2019-05-09T00:08:16.394Z,988.53
2019-05-09T00:08:56.823Z,988.5
2019-05-09T00:12:28.911Z,988.53
2019-05-09T00:13:13.756Z,988.56
2019-05-09T00:13:53.949Z,988.53
2019-05-09T00:14:36.672Z,988.52
2019-05-09T00:15:21.324Z,988.49
2019-05-09T00:16:03.607Z,988.5
2019-05-09T00:16:43.870Z,988.52
2019-05-09T00:17:23.230Z,988.49
2019-05-09T00:18:03.850Z,988.53
2019-05-09T00:18:46.678Z,988.54
2019-05-09T00:19:29.097Z,988.54
2019-05-09T00:20:09.520Z,988.54
2019-05-09T00:20:51.375Z,988.54
2019-05-09T00:21:33.240Z,988.53
2019-05-09T00:22:13.541Z,988.53
2019-05-09T00:22:53.901Z,988.53
2019-05-09T00:23:33.238Z,988.54
2019-05-09T00:24:54.068Z,988.48
2019-05-09T00:25:37.758Z,988.48
2019-05-09T00:26:17.963Z,988.52
2019-05-09T00:27:00.025Z,988.52
2019-05-09T00:27:40.359Z,988.54
2019-05-09T00:28:23.591Z,988.56
2019-05-09T00:29:04.181Z,988.53
2019-05-09T00:29:44.719Z,988.54
2019-05-09T00:30:28.333Z,988.49
2019-05-09T00:31:09.139Z,988.49
2019-05-09T00:31:49.733Z,988.52
2019-05-09T00:32:31.061Z,988.5
2019-05-09T00:33:14.111Z,988.48
2019-05-09T00:33:53.292Z,988.5
2019-05-09T00:34:33.784Z,988.48
2019-05-09T00:35:14.100Z,988.46
2019-05-09T00:35:53.732Z,988.52
2019-05-09T00:36:34.486Z,988.52
2019-05-09T00:37:17.016Z,988.53
2019-05-09T00:37:58.549Z,988.55
2019-05-09T00:38:38.986Z,988.51
2019-05-09T00:39:19.415Z,988.49
2019-05-09T00:39:59.768Z,988.58
2019-05-09T00:40:52.862Z,988.56
2019-05-09T00:41:20.672Z,988.54
2019-05-09T00:42:04.313Z,988.52
2019-05-09T00:42:44.022Z,988.53
2019-05-09T00:43:23.755Z,988.52
2019-05-09T00:44:03.480Z,988.55
2019-05-09T00:44:44.306Z,988.61
2019-05-09T00:45:30.487Z,988.6
2019-05-09T00:46:11.339Z,988.62
2019-05-09T00:46:53.578Z,988.58
2019-05-09T00:47:34.471Z,988.56
2019-05-09T00:48:14.911Z,988.59
2019-05-09T00:48:55.874Z,988.67
2019-05-09T00:49:38.375Z,988.63
2019-05-09T00:50:23.522Z,988.61
2019-05-09T00:51:14.011Z,988.66
2019-05-09T00:57:38.176Z,988.65
2019-05-09T01:01:40.887Z,988.62
2019-05-09T01:02:23.435Z,988.63
2019-05-09T01:03:03.532Z,988.67
2019-05-09T01:03:43.196Z,988.6
2019-05-09T01:04:24.091Z,988.63
2019-05-09T01:05:04.867Z,988.58
2019-05-09T01:05:47.671Z,988.56
2019-05-09T01:06:29.001Z,988.55
2019-05-09T01:07:09.521Z,988.56
2019-05-09T01:07:50.460Z,988.53
2019-05-09T01:08:30.847Z,988.53
2019-05-09T01:09:13.867Z,988.52
2019-05-09T01:09:54.388Z,988.49
2019-05-09T01:10:34.661Z,988.46
2019-05-09T01:11:15.641Z,988.45
2019-05-09T01:11:55.539Z,988.46
2019-05-09T01:12:36.318Z,988.47
2019-05-09T01:13:17.489Z,988.42
2019-05-09T01:13:59.036Z,988.46
2019-05-09T01:14:39.715Z,988.41
2019-05-09T01:15:20.202Z,988.38
2019-05-09T01:16:00.974Z,988.42
2019-05-09T01:17:24.044Z,988.43
2019-05-09T01:18:04.628Z,988.39
2019-05-09T01:18:45.068Z,988.4
2019-05-09T01:19:25.575Z,988.39
2019-05-09T01:20:06.916Z,988.33
2019-05-09T01:20:47.941Z,988.37
2019-05-09T01:21:28.592Z,988.41
2019-05-09T01:22:09.205Z,988.38
2019-05-09T01:22:49.660Z,988.36
2019-05-09T01:23:30.019Z,988.38
2019-05-09T01:24:10.453Z,988.39
2019-05-09T01:24:50.812Z,988.36
2019-05-09T01:25:33.243Z,988.36
2019-05-09T01:26:13.159Z,988.38
2019-05-09T01:26:54.394Z,988.41
2019-05-09T01:27:37.433Z,988.39
2019-05-09T01:28:18.489Z,988.38
2019-05-09T01:28:58.884Z,988.38
2019-05-09T01:29:39.255Z,988.4
2019-05-09T01:30:23.556Z,988.39
2019-05-09T01:31:05.076Z,988.42
2019-05-09T01:32:36.256Z,988.37
2019-05-09T01:33:24.150Z,988.39
2019-05-09T01:34:13.299Z,988.43
2019-05-09T01:39:47.182Z,988.38
2019-05-09T01:40:36.341Z,988.41
2019-05-09T01:41:30.701Z,988.38
2019-05-09T01:42:14.288Z,988.41
2019-05-09T01:43:05.539Z,988.39
2019-05-09T01:43:55.950Z,988.37
2019-05-09T01:44:45.305Z,988.34
2019-05-09T01:45:46.898Z,988.36
2019-05-09T01:46:35.665Z,988.34
2019-05-09T01:47:24.536Z,988.31
2019-05-09T01:51:40.782Z,988.39
2019-05-09T01:52:29.065Z,988.37
2019-05-09T01:53:19.008Z,988.36
2019-05-09T01:54:09.244Z,988.29
2019-05-09T01:55:00.938Z,988.34
2019-05-09T01:56:59.356Z,988.32
2019-05-09T01:57:39.696Z,988.28
2019-05-09T01:58:20.558Z,988.27
2019-05-09T01:59:02.849Z,988.33
2019-05-09T01:59:41.226Z,988.3
2019-05-09T02:00:24.006Z,988.25
2019-05-09T02:01:04.391Z,988.25
2019-05-09T02:01:45.437Z,988.27
2019-05-09T02:02:26.331Z,988.28
2019-05-09T02:03:07.458Z,988.26
2019-05-09T02:04:30.829Z,988.24
2019-05-09T02:05:12.909Z,988.27
2019-05-09T02:05:53.108Z,988.25
2019-05-09T02:06:33.344Z,988.27
2019-05-09T02:07:13.529Z,988.28
2019-05-09T02:07:54.383Z,988.26
2019-05-09T02:08:35.730Z,988.22
2019-05-09T02:10:43.964Z,988.25
2019-05-09T02:12:35.243Z,988.24
2019-05-09T02:13:26.825Z,988.26
2019-05-09T02:14:17.957Z,988.22
2019-05-09T02:15:13.651Z,988.17
2019-05-09T02:17:15.997Z,988.2
2019-05-09T02:18:07.666Z,988.24
2019-05-09T02:19:05.114Z,988.24
2019-05-09T02:19:55.571Z,988.21
2019-05-09T02:20:46.672Z,988.26
2019-05-09T02:21:35.230Z,988.2
2019-05-09T02:22:28.828Z,988.27
2019-05-09T02:23:17.677Z,988.23
2019-05-09T02:24:06.175Z,988.25
2019-05-09T02:24:58.626Z,988.27
2019-05-09T02:25:53.225Z,988.24
2019-05-09T02:26:43.663Z,988.25
2019-05-09T02:27:30.697Z,988.25
2019-05-09T02:28:28.063Z,988.25
2019-05-09T02:30:28.047Z,988.22
2019-05-09T02:31:18.282Z,988.22
2019-05-09T02:32:05.874Z,988.23
2019-05-09T02:32:55.095Z,988.21
2019-05-09T02:35:12.069Z,988.2
2019-05-09T02:35:58.125Z,988.2
2019-05-09T02:36:33.559Z,988.2
2019-05-09T02:37:14.073Z,988.19
2019-05-09T02:37:54.585Z,988.23
2019-05-09T02:38:39.135Z,988.2
2019-05-09T02:39:18.822Z,988.18
2019-05-09T02:39:59.084Z,988.17
2019-05-09T02:40:39.408Z,988.15
2019-05-09T02:41:19.827Z,988.15
2019-05-09T02:42:08.656Z,988.15
2019-05-09T02:42:40.294Z,988.15
2019-05-09T02:43:20.502Z,988.15
2019-05-09T02:44:00.944Z,988.19
2019-05-09T02:44:41.231Z,988.18
2019-05-09T02:45:21.646Z,988.17
2019-05-09T02:46:01.973Z,988.21
2019-05-09T02:46:42.807Z,988.19
2019-05-09T02:47:23.246Z,988.18
2019-05-09T02:48:04.815Z,988.18
2019-05-09T02:48:49.086Z,988.18
2019-05-09T02:49:31.235Z,988.19
2019-05-09T02:50:53.017Z,988.14
2019-05-09T02:51:33.231Z,988.14
2019-05-09T02:52:13.668Z,988.11
2019-05-09T02:53:02.797Z,988.07
2019-05-09T02:53:43.326Z,988.07
2019-05-09T02:54:23.907Z,988.09
2019-05-09T02:55:04.459Z,988.02
2019-05-09T02:55:44.823Z,988.01
2019-05-09T02:56:29.021Z,988
2019-05-09T02:57:09.206Z,988.01
2019-05-09T02:57:59.160Z,987.99
2019-05-09T02:58:39.132Z,987.98
2019-05-09T02:59:29.635Z,987.97
2019-05-09T03:00:10.676Z,987.99
2019-05-09T03:00:51.581Z,988.02
2019-05-09T03:02:12.270Z,987.95
2019-05-09T03:02:53.525Z,987.99
2019-05-09T03:03:33.901Z,988.04
2019-05-09T03:04:19.089Z,987.94
2019-05-09T03:04:59.312Z,987.96
2019-05-09T03:05:39.883Z,987.93
2019-05-09T03:06:20.270Z,987.94
2019-05-09T03:07:02.471Z,987.94
2019-05-09T03:07:43.498Z,987.94
2019-05-09T03:08:24.106Z,987.89
2019-05-09T03:09:04.530Z,987.94
2019-05-09T03:09:47.666Z,987.88
2019-05-09T03:10:25.551Z,987.88
2019-05-09T03:11:09.221Z,987.87
2019-05-09T03:11:48.487Z,987.89
2019-05-09T03:12:34.615Z,987.84
2019-05-09T03:13:08.994Z,987.88
2019-05-09T03:13:49.495Z,987.89
2019-05-09T03:14:28.777Z,987.9
2019-05-09T03:15:18.546Z,987.86
2019-05-09T03:15:58.688Z,987.87
2019-05-09T03:16:40.199Z,987.93
2019-05-09T03:17:23.061Z,987.93
2019-05-09T03:18:03.751Z,987.9
2019-05-09T03:18:43.972Z,987.88
2019-05-09T03:19:24.928Z,987.9
2019-05-09T03:20:05.312Z,987.97
2019-05-09T03:20:45.623Z,987.95
2019-05-09T03:21:29.711Z,987.9
2019-05-09T03:22:08.701Z,987.92
2019-05-09T03:22:48.689Z,987.97
2019-05-09T03:23:28.741Z,987.9
2019-05-09T03:24:10.083Z,987.93
2019-05-09T03:24:52.189Z,987.9
2019-05-09T03:32:40.788Z,987.82
2019-05-09T03:33:21.740Z,987.81
2019-05-09T03:34:02.580Z,987.78
2019-05-09T03:34:43.061Z,987.78
2019-05-09T03:35:27.565Z,987.8
2019-05-09T03:36:07.770Z,987.82
2019-05-09T03:36:47.649Z,987.81
2019-05-09T03:37:29.099Z,987.81
2019-05-09T03:38:09.460Z,987.82
2019-05-09T03:38:50.603Z,987.8
2019-05-09T03:39:32.826Z,987.76
2019-05-09T03:40:13.378Z,987.76
2019-05-09T03:40:59.382Z,987.79
2019-05-09T03:41:39.822Z,987.76
2019-05-09T03:42:21.689Z,987.78
2019-05-09T03:43:00.729Z,987.77
2019-05-09T03:43:41.365Z,987.71
2019-05-09T03:44:21.726Z,987.77
2019-05-09T03:45:02.780Z,987.79
2019-05-09T03:45:48.043Z,987.78
2019-05-09T03:46:27.984Z,987.76
2019-05-09T03:47:10.532Z,987.74
2019-05-09T03:47:50.974Z,987.74
2019-05-09T03:48:31.661Z,987.74
2019-05-09T03:49:52.470Z,987.75
2019-05-09T03:50:33.042Z,987.77
2019-05-09T03:51:13.410Z,987.71
2019-05-09T03:52:37.265Z,987.71
2019-05-09T03:53:18.214Z,987.72
2019-05-09T03:53:57.650Z,987.73
2019-05-09T03:54:37.760Z,987.66
2019-05-09T03:55:18.296Z,987.66
2019-05-09T03:55:58.653Z,987.73
2019-05-09T03:56:39.147Z,987.71
2019-05-09T03:57:19.801Z,987.72
2019-05-09T03:58:00.427Z,987.74
2019-05-09T03:58:41.040Z,987.7
2019-05-09T03:59:21.779Z,987.67
2019-05-09T04:00:02.133Z,987.7
2019-05-09T04:00:42.989Z,987.71
2019-05-09T04:01:24.321Z,987.69
2019-05-09T04:02:08.000Z,987.73
2019-05-09T04:02:47.496Z,987.73
2019-05-09T04:03:27.617Z,987.73
2019-05-09T04:04:08.726Z,987.71
2019-05-09T04:04:47.942Z,987.71
2019-05-09T04:05:28.205Z,987.74
2019-05-09T04:06:09.423Z,987.7
2019-05-09T04:17:47.494Z,987.63
2019-05-09T04:18:48.849Z,987.63
2019-05-09T04:23:47.850Z,987.66
2019-05-09T04:24:34.626Z,987.68
2019-05-09T04:25:18.057Z,987.7
2019-05-09T04:25:59.022Z,987.68
2019-05-09T04:26:43.620Z,987.68
2019-05-09T04:27:22.111Z,987.68
2019-05-09T05:08:50.254Z,987.8
2019-05-09T05:09:33.010Z,987.84
2019-05-09T05:10:14.249Z,987.84
2019-05-09T05:10:58.354Z,987.89
2019-05-09T05:11:39.205Z,987.86
2019-05-09T05:12:23.966Z,987.88
2019-05-09T05:13:04.410Z,987.9
2019-05-09T05:13:48.117Z,987.89
2019-05-09T05:14:28.075Z,987.92
2019-05-09T05:15:08.423Z,987.95
2019-05-09T05:15:48.869Z,987.89
2019-05-09T05:16:30.430Z,987.91
2019-05-09T05:17:11.448Z,987.92
2019-05-09T05:17:52.998Z,987.92
2019-05-09T05:18:33.250Z,987.95
2019-05-09T05:19:14.200Z,988
2019-05-09T05:19:54.956Z,987.99
2019-05-09T05:20:37.816Z,987.96
2019-05-09T05:21:22.930Z,987.93
2019-05-09T05:22:14.317Z,987.96
2019-05-09T05:22:58.066Z,988.01
2019-05-09T05:23:38.416Z,987.94
2019-05-09T05:24:22.571Z,988
2019-05-09T05:25:09.161Z,987.97
2019-05-09T05:25:50.750Z,987.91
2019-05-09T05:26:31.975Z,988.01
2019-05-09T05:27:12.706Z,987.95
2019-05-09T05:27:55.217Z,987.97
2019-05-09T05:28:38.968Z,987.98
2019-05-09T05:29:19.735Z,987.91
2019-05-09T05:30:03.303Z,988.01
2019-05-09T05:30:47.683Z,987.98
2019-05-09T05:31:28.490Z,988.1
2019-05-09T05:32:08.526Z,988.08
2019-05-09T05:32:50.652Z,988.14
2019-05-09T05:34:18.225Z,988.05
2019-05-09T05:34:59.149Z,988.01
2019-05-09T05:35:44.250Z,988.05
2019-05-09T05:36:27.919Z,988.09
2019-05-09T05:37:08.503Z,988.14
2019-05-09T05:50:01.438Z,987.98
2019-05-09T05:50:44.723Z,988.03
2019-05-09T05:51:24.929Z,987.99
2019-05-09T05:52:08.192Z,988
2019-05-09T05:52:49.975Z,988.03
2019-05-09T05:53:33.789Z,988.01
2019-05-09T05:54:18.287Z,988.02
2019-05-09T05:54:59.486Z,987.99
2019-05-09T05:55:40.094Z,988.01
2019-05-09T05:56:24.392Z,988.03
2019-05-09T05:57:08.502Z,987.97
2019-05-09T05:57:51.082Z,987.93
2019-05-09T05:58:33.553Z,987.98
2019-05-09T05:59:21.201Z,988.05
2019-05-09T06:00:07.816Z,988.04
2019-05-09T06:00:50.770Z,988.06
2019-05-09T06:01:33.148Z,988.06
2019-05-09T06:02:13.978Z,988.08
2019-05-09T06:03:01.003Z,988.13
2019-05-09T06:03:45.070Z,988.1
2019-05-09T06:04:29.119Z,988.15
2019-05-09T06:05:13.639Z,988.13
2019-05-09T06:05:58.383Z,988.13
2019-05-09T06:06:40.815Z,988.12
2019-05-09T06:07:24.441Z,988.14
2019-05-09T06:13:22.865Z,988.09
2019-05-09T06:14:08.264Z,988.09
2019-05-09T06:14:45.078Z,988.04
2019-05-09T06:15:28.813Z,988.09
2019-05-09T06:16:50.159Z,988.03
2019-05-09T06:17:30.774Z,988
2019-05-09T06:18:11.281Z,988.15
2019-05-09T06:19:38.528Z,988.01
2019-05-09T06:20:20.627Z,988.01
2019-05-09T06:24:12.078Z,988
2019-05-09T06:24:54.584Z,988.01
2019-05-09T06:25:39.208Z,987.98
2019-05-09T06:26:19.846Z,988.04
2019-05-09T06:27:01.679Z,988
2019-05-09T06:27:48.030Z,988.04
2019-05-09T06:28:27.411Z,987.98
2019-05-09T06:29:10.106Z,987.98
2019-05-09T06:29:53.061Z,988
2019-05-09T06:30:33.453Z,988.1
2019-05-09T06:31:14.030Z,987.96
2019-05-09T06:31:58.408Z,987.95
2019-05-09T06:32:39.768Z,988.06
2019-05-09T06:33:19.638Z,988.01
2019-05-09T06:34:01.927Z,988.04
2019-05-09T06:34:44.506Z,988.05
2019-05-09T06:35:27.965Z,988.06
2019-05-09T06:36:08.513Z,988.05
2019-05-09T06:36:52.883Z,988.06
2019-05-09T06:37:38.259Z,988.02
2019-05-09T06:38:28.191Z,988.02
2019-05-09T06:39:09.884Z,988.06
2019-05-09T06:39:58.003Z,988.16
2019-05-09T06:40:38.705Z,988.07
2019-05-09T06:41:18.959Z,988.05
2019-05-09T06:42:00.295Z,988.03
2019-05-09T06:42:43.858Z,988.06
2019-05-09T06:43:25.298Z,988.09
2019-05-09T06:44:17.907Z,988.06
2019-05-09T06:44:58.401Z,988.02
2019-05-09T06:45:41.577Z,988.06
2019-05-09T06:46:20.716Z,988.08
2019-05-09T06:47:01.248Z,988.07
2019-05-09T06:47:44.034Z,988.05
2019-05-09T06:48:28.214Z,988.11
2019-05-09T06:49:57.391Z,988.15
2019-05-09T06:50:38.632Z,988.11
2019-05-09T06:51:21.287Z,988.06
2019-05-09T06:52:00.593Z,988.1
2019-05-09T06:52:41.102Z,988.13
2019-05-09T06:53:27.853Z,988.11
2019-05-09T06:54:17.423Z,988.09
2019-05-09T06:54:59.190Z,988.14
2019-05-09T06:55:42.728Z,988.16
2019-05-09T06:56:24.165Z,988.15
2019-05-09T06:57:07.926Z,988.25
2019-05-09T06:57:49.422Z,988.16
2019-05-09T06:58:31.466Z,988.18
2019-05-09T06:59:13.564Z,988.14
2019-05-09T06:59:57.842Z,988.18
2019-05-09T07:00:38.656Z,988.12
2019-05-09T07:01:19.201Z,988.06
2019-05-09T07:01:59.532Z,987.94
2019-05-09T07:02:40.682Z,988.04
2019-05-09T07:03:24.749Z,988.1
2019-05-09T07:04:08.910Z,988.02
2019-05-09T07:04:49.089Z,987.99
2019-05-09T07:05:32.488Z,988.04
2019-05-09T07:06:12.050Z,988.12
2019-05-09T07:06:54.365Z,988.07
2019-05-09T07:09:01.370Z,987.98
2019-05-09T07:09:42.369Z,987.99
2019-05-09T07:10:28.357Z,987.98
2019-05-09T07:11:10.524Z,987.94
2019-05-09T07:13:18.315Z,987.9
2019-05-09T07:13:57.925Z,987.94
2019-05-09T07:14:41.779Z,987.98
2019-05-09T07:15:21.927Z,988.25
2019-05-09T07:16:03.802Z,987.94
2019-05-09T07:16:44.569Z,987.9
2019-05-09T07:17:31.656Z,988.02
2019-05-09T07:18:09.307Z,988.03
2019-05-09T07:18:50.408Z,987.9
2019-05-09T07:19:32.724Z,987.94
2019-05-09T07:20:18.924Z,987.87
2019-05-09T07:21:00.280Z,987.98
2019-05-09T07:21:40.771Z,988.01
2019-05-09T07:22:28.006Z,987.89
2019-05-09T07:23:10.990Z,988.11
2019-05-09T07:23:54.325Z,987.94
2019-05-09T07:24:39.327Z,987.92
2019-05-09T07:26:18.448Z,987.94
2019-05-09T07:27:04.167Z,987.87
2019-05-09T07:27:47.984Z,987.87
2019-05-09T07:28:28.216Z,987.83
2019-05-09T07:29:09.723Z,987.89
2019-05-09T07:29:51.870Z,987.94
2019-05-09T07:30:34.838Z,988.01
2019-05-09T07:31:17.593Z,987.91
2019-05-09T07:32:43.827Z,987.98
2019-05-09T07:33:24.481Z,987.94
2019-05-09T07:34:08.517Z,988.08
2019-05-09T07:34:53.640Z,988.01
2019-05-09T07:35:35.075Z,987.99
2019-05-09T07:36:18.849Z,987.97
2019-05-09T07:36:58.127Z,988.09
2019-05-09T07:37:38.194Z,987.97
2019-05-09T07:38:20.486Z,987.93
2019-05-09T07:39:04.581Z,988.01
2019-05-09T07:39:52.053Z,987.94
2019-05-09T07:40:38.728Z,987.96
2019-05-09T07:41:19.786Z,987.95
2019-05-09T07:42:02.370Z,987.92
2019-05-09T07:42:44.336Z,988.02
2019-05-09T07:43:32.856Z,987.99
2019-05-09T07:44:18.185Z,987.92
2019-05-09T07:44:59.049Z,988
2019-05-09T07:45:44.158Z,987.87
2019-05-09T07:46:28.321Z,987.88
2019-05-09T07:47:07.751Z,987.89
2019-05-09T07:47:49.437Z,987.85
2019-05-09T07:48:32.997Z,987.92
2019-05-09T07:49:20.409Z,987.93
2019-05-09T07:50:00.917Z,987.86
2019-05-09T07:50:48.111Z,987.88
2019-05-09T07:51:32.691Z,987.92
2019-05-09T07:52:19.317Z,987.88
2019-05-09T07:53:01.068Z,987.86
2019-05-09T07:53:48.150Z,987.92
2019-05-09T07:54:32.787Z,987.86
2019-05-09T07:55:19.886Z,987.9
2019-05-09T07:56:09.007Z,987.81
2019-05-09T07:56:52.482Z,987.89
2019-05-09T07:57:46.059Z,987.78
2019-05-09T07:58:21.410Z,987.79
2019-05-09T07:59:08.246Z,987.87
2019-05-09T07:59:55.309Z,987.82
2019-05-09T08:00:38.410Z,987.82
2019-05-09T08:01:19.213Z,987.77
2019-05-09T08:02:00.243Z,987.76
2019-05-09T08:02:47.668Z,987.85
2019-05-09T08:03:35.116Z,987.75
2019-05-09T08:04:20.947Z,987.77
2019-05-09T08:07:08.321Z,987.81
2019-05-09T08:19:44.824Z,987.86
2019-05-09T08:20:27.657Z,987.86
2019-05-09T08:21:08.536Z,987.81
2019-05-09T08:21:52.092Z,987.75
2019-05-09T08:22:34.572Z,987.72
2019-05-09T08:23:19.329Z,987.66
2019-05-09T08:24:01.803Z,987.68
2019-05-09T08:24:42.479Z,987.71
2019-05-09T08:25:22.990Z,987.63
2019-05-09T08:26:09.710Z,987.68
2019-05-09T08:26:52.428Z,987.65
2019-05-09T08:27:32.936Z,987.65
2019-05-09T08:28:20.252Z,987.71
2019-05-09T08:29:00.549Z,987.6
2019-05-09T08:29:44.548Z,987.68
2019-05-09T08:30:24.972Z,987.63
2019-05-09T08:31:09.207Z,987.69
2019-05-09T08:31:51.500Z,987.64
2019-05-09T08:33:38.471Z,987.61
2019-05-09T08:34:20.956Z,987.73
2019-05-09T08:35:08.195Z,987.67
2019-05-09T08:35:52.574Z,987.76
2019-05-09T08:36:32.677Z,987.63
2019-05-09T08:37:17.540Z,987.66
2019-05-09T08:38:17.817Z,987.67
2019-05-09T08:41:01.539Z,987.58
2019-05-09T08:41:45.126Z,987.66
2019-05-09T08:44:08.786Z,987.53
2019-05-09T08:44:50.673Z,987.55
2019-05-09T08:45:32.391Z,987.62
2019-05-09T08:46:12.787Z,987.72
2019-05-09T08:46:53.474Z,987.65
2019-05-09T08:47:37.894Z,987.64
2019-05-09T08:48:18.374Z,987.62
2019-05-09T08:48:59.003Z,987.55
2019-05-09T08:49:46.357Z,987.58
2019-05-09T08:50:24.998Z,987.6
2019-05-09T08:51:05.420Z,987.61
2019-05-09T08:52:08.908Z,987.57
2019-05-09T08:52:37.607Z,987.58
2019-05-09T08:53:18.773Z,987.6
2019-05-09T08:54:01.308Z,987.71
2019-05-09T08:54:48.711Z,987.71
2019-05-09T08:55:32.978Z,987.57
2019-05-09T08:56:13.448Z,987.66
2019-05-09T08:56:54.261Z,987.62
2019-05-09T08:57:34.754Z,987.66
2019-05-09T08:58:19.532Z,987.64
2019-05-09T08:59:39.346Z,987.73
2019-05-09T09:00:23.286Z,987.56
2019-05-09T09:01:09.565Z,987.55
2019-05-09T09:02:11.018Z,987.63
2019-05-09T09:02:38.800Z,987.7
2019-05-09T09:03:23.277Z,987.56
2019-05-09T09:04:08.149Z,987.61
2019-05-09T09:04:51.353Z,987.66
2019-05-09T09:05:37.988Z,987.7
2019-05-09T09:06:20.957Z,987.67
2019-05-09T09:07:02.428Z,987.64
2019-05-09T09:07:48.378Z,987.7
2019-05-09T09:08:32.599Z,987.61
2019-05-09T09:09:13.905Z,987.58
2019-05-09T09:09:57.697Z,987.63
2019-05-09T09:10:38.800Z,987.56
2019-05-09T09:11:22.240Z,987.68
2019-05-09T09:12:04.125Z,987.68
2019-05-09T09:12:47.675Z,987.56
2019-05-09T09:13:28.890Z,987.61
2019-05-09T09:14:09.270Z,987.6
2019-05-09T09:14:49.715Z,987.57
2019-05-09T09:15:55.356Z,987.55
2019-05-09T09:16:18.679Z,987.56
2019-05-09T09:16:57.538Z,987.54
2019-05-09T09:17:38.479Z,987.53
2019-05-09T09:18:17.897Z,987.58
2019-05-09T09:18:58.507Z,987.58
2019-05-09T09:19:39.030Z,987.55
2019-05-09T09:20:19.401Z,987.53
2019-05-09T09:21:01.602Z,987.54
2019-05-09T09:21:42.139Z,987.54
2019-05-09T09:22:28.318Z,987.54
2019-05-09T09:23:08.788Z,987.52
2019-05-09T09:23:51.981Z,987.54
2019-05-09T09:24:37.593Z,987.62
2019-05-09T09:25:18.641Z,987.6
2019-05-09T09:26:00.590Z,987.61
2019-05-09T09:26:43.699Z,987.64
2019-05-09T09:28:11.403Z,987.67
2019-05-09T09:28:52.038Z,987.62
2019-05-09T09:29:37.936Z,987.69
2019-05-09T09:30:24.048Z,987.67
2019-05-09T09:31:01.124Z,987.65
2019-05-09T09:31:48.092Z,987.68
2019-05-09T09:32:29.470Z,987.58
2019-05-09T09:33:13.902Z,987.65
2019-05-09T09:33:58.470Z,987.66
2019-05-09T09:34:41.739Z,987.67
2019-05-09T09:35:27.753Z,987.69
2019-05-09T09:36:08.683Z,987.71
2019-05-09T09:37:02.858Z,987.63
2019-05-09T09:38:02.788Z,987.64
2019-05-09T09:38:50.685Z,987.69
2019-05-09T09:39:44.279Z,987.72
2019-05-09T09:40:28.162Z,987.6
2019-05-09T09:43:19.553Z,987.64
2019-05-09T09:44:05.547Z,987.68
2019-05-09T09:44:53.302Z,987.66
2019-05-09T09:45:38.129Z,987.66
2019-05-09T09:46:18.452Z,987.72
2019-05-09T09:46:58.813Z,987.7
2019-05-09T09:49:21.070Z,987.65
2019-05-09T09:50:02.945Z,987.75
2019-05-09T09:50:48.743Z,987.63
2019-05-09T09:51:27.566Z,987.62
2019-05-09T09:57:18.971Z,987.64
2019-05-09T09:58:08.126Z,987.59
2019-05-09T09:58:48.360Z,987.7
2019-05-09T09:59:29.596Z,987.56
2019-05-09T10:00:10.078Z,987.64
2019-05-09T10:00:50.421Z,987.6
2019-05-09T10:01:34.689Z,987.54
2019-05-09T10:02:58.656Z,987.6
2019-05-09T10:03:55.118Z,987.6
2019-05-09T10:04:37.491Z,987.56
2019-05-09T10:05:19.213Z,987.63
2019-05-09T10:06:00.298Z,987.56
2019-05-09T10:06:43.434Z,987.55
2019-05-09T10:07:29.713Z,987.56
2019-05-09T10:08:14.143Z,987.6
2019-05-09T10:08:54.492Z,987.67
2019-05-09T10:09:38.479Z,987.74
2019-05-09T10:10:19.256Z,987.74
2019-05-09T10:11:02.384Z,987.65
2019-05-09T10:13:23.776Z,987.75
2019-05-09T10:14:07.911Z,987.63
2019-05-09T10:14:48.237Z,987.68
2019-05-09T10:15:29.711Z,987.67
2019-05-09T10:16:25.409Z,987.79
2019-05-09T10:16:53.276Z,987.71
2019-05-09T10:17:39.260Z,987.6
2019-05-09T10:18:19.773Z,987.69
2019-05-09T10:19:04.109Z,987.74
2019-05-09T10:19:49.867Z,987.71
2019-05-09T10:20:51.331Z,987.76
2019-05-09T10:21:33.786Z,987.76
2019-05-09T10:22:21.959Z,987.74
2019-05-09T10:23:09.643Z,987.75
2019-05-09T10:25:18.244Z,987.8
2019-05-09T10:25:59.629Z,987.82
2019-05-09T10:26:41.959Z,987.81
2019-05-09T10:27:22.457Z,987.74
2019-05-09T10:28:03.682Z,987.81
2019-05-09T10:28:49.655Z,987.73
2019-05-09T11:09:47.775Z,987.89
2019-05-09T11:10:32.738Z,987.81
2019-05-09T11:11:22.990Z,987.78
2019-05-09T11:12:07.558Z,987.8
2019-05-09T11:12:48.017Z,987.79
2019-05-09T11:13:39.038Z,987.82
2019-05-09T11:14:36.370Z,987.83
2019-05-09T11:15:13.410Z,987.88
2019-05-09T11:15:54.036Z,987.87
2019-05-09T11:16:42.844Z,987.87
2019-05-09T11:17:24.476Z,987.85
2019-05-09T11:18:11.042Z,987.85
2019-05-09T11:18:53.045Z,987.98
2019-05-09T11:20:22.409Z,988.01
2019-05-09T11:21:08.349Z,988.01
2019-05-09T11:21:48.754Z,987.91
2019-05-09T11:22:30.048Z,987.97
2019-05-09T11:23:10.644Z,987.89
2019-05-09T11:23:53.711Z,987.95
2019-05-09T11:24:46.010Z,987.99
2019-05-09T11:25:20.918Z,987.99
2019-05-09T11:26:02.404Z,988.02
2019-05-09T11:26:43.776Z,988
2019-05-09T11:27:29.421Z,988
2019-05-09T11:28:21.018Z,988.05
2019-05-09T11:29:01.641Z,987.97
2019-05-09T11:29:49.798Z,988
2019-05-09T11:30:39.276Z,987.97
2019-05-09T11:31:38.897Z,988.07
2019-05-09T11:32:22.222Z,987.97
2019-05-09T11:33:03.633Z,988.01
2019-05-09T11:33:48.345Z,987.98
2019-05-09T11:34:30.332Z,988.05
2019-05-09T11:35:19.269Z,988.06
2019-05-09T11:36:21.085Z,988.03
2019-05-09T11:37:04.106Z,988.03
2019-05-09T11:38:02.659Z,988.01
2019-05-09T11:38:50.340Z,988.05
2019-05-09T11:39:38.752Z,988.09
2019-05-09T11:40:17.060Z,988.02
2019-05-09T11:41:03.712Z,988.01
2019-05-09T11:41:48.848Z,988.07
2019-05-09T11:42:28.902Z,988.01
2019-05-09T11:43:10.991Z,988.03
2019-05-09T11:43:55.092Z,988.04
2019-05-09T11:44:38.479Z,988.07
2019-05-09T11:45:22.976Z,988.12
2019-05-09T11:46:03.867Z,988.11
2019-05-09T11:46:47.761Z,988.09
2019-05-09T11:47:38.063Z,988.08
2019-05-09T11:48:11.094Z,988.09
2019-05-09T11:48:54.576Z,988.1
2019-05-09T11:49:39.013Z,988.11
2019-05-09T11:53:24.525Z,988.16
2019-05-09T11:54:17.133Z,988.2
2019-05-09T11:55:00.982Z,988.2
2019-05-09T11:55:43.242Z,988.22
2019-05-09T11:56:24.999Z,988.18
2019-05-09T11:57:08.118Z,988.22
2019-05-09T12:05:34.302Z,988.25
2019-05-09T12:06:20.547Z,988.24
2019-05-09T12:07:07.647Z,988.27
2019-05-09T12:07:51.409Z,988.33
2019-05-09T12:08:39.160Z,988.28
2019-05-09T12:09:23.384Z,988.25
2019-05-09T12:10:07.753Z,988.33
2019-05-09T12:10:57.888Z,988.29
2019-05-09T12:11:39.967Z,988.27
2019-05-09T12:12:28.259Z,988.27
2019-05-09T12:13:58.096Z,988.3
2019-05-09T12:14:40.360Z,988.28
2019-05-09T12:15:22.287Z,988.37
2019-05-09T12:16:04.903Z,988.29
2019-05-09T12:16:50.375Z,988.3
2019-05-09T12:17:49.653Z,988.3
2019-05-09T12:18:19.762Z,988.35
2019-05-09T12:24:42.780Z,988.39
2019-05-09T12:28:35.350Z,988.33
2019-05-09T12:31:07.841Z,988.4
2019-05-09T12:31:57.644Z,988.34
2019-05-09T13:00:25.464Z,988.57
2019-05-09T13:13:18.380Z,988.78
2019-05-09T13:14:01.286Z,988.82
2019-05-09T13:14:48.427Z,988.82
2019-05-09T13:15:30.973Z,988.86
2019-05-09T13:16:13.585Z,988.83
2019-05-09T13:24:28.966Z,988.89
2019-05-09T13:25:09.816Z,988.88
2019-05-09T13:25:50.473Z,988.89
2019-05-09T13:27:32.171Z,988.94
2019-05-09T13:28:17.580Z,988.93
2019-05-09T13:29:17.118Z,988.96